sensor_id;sensor_type;location;lat;lon;timestamp;pressure;altitude;pressure_sealevel;temperature;humidity
54389;BME280;40975;50.390;8.640;2023-10-31T00:00:42;97235.00;;;10.95;100.00
54389;BME280;40975;50.390;8.640;2023-10-31T00:03:07;97231.72;;;10.93;100.00
54389;BME280;40975;50.390;8.640;2023-10-31T00:05:32;97227.78;;;10.89;100.00
54389;BME280;40975;50.390;8.640;2023-10-31T00:07:58;97230.69;;;10.94;100.00
54389;BME280;40975;50.390;8.640;2023-10-31T00:10:23;97226.03;;;10.96;100.00
54389;BME280;40975;50.390;8.640;2023-10-31T00:12:48;97231.28;;;10.89;100.00
54389;BME280;40975;50.390;8.640;2023-10-31T00:15:14;97230.03;;;10.85;100.00
54389;BME280;40975;50.390;8.640;2023-10-31T00:17:39;97231.25;;;10.83;100.00
54389;BME280;40975;50.390;8.640;2023-10-31T00:20:05;97225.94;;;10.83;100.00
54389;BME280;40975;50.390;8.640;2023-10-31T00:22:30;97232.63;;;10.79;100.00
54389;BME280;40975;50.390;8.640;2023-10-31T00:24:56;97243.81;;;10.74;100.00
54389;BME280;40975;50.390;8.640;2023-10-31T00:27:21;97251.19;;;10.72;100.00
54389;BME280;40975;50.390;8.640;2023-10-31T00:29:47;97254.59;;;10.66;100.00
54389;BME280;40975;50.390;8.640;2023-10-31T00:32:12;97260.97;;;10.71;100.00
54389;BME280;40975;50.390;8.640;2023-10-31T00:34:38;97262.16;;;10.69;100.00
54389;BME280;40975;50.390;8.640;2023-10-31T00:37:03;97269.75;;;10.72;100.00
54389;BME280;40975;50.390;8.640;2023-10-31T00:39:28;97260.97;;;10.71;100.00
54389;BME280;40975;50.390;8.640;2023-10-31T00:41:54;97266.25;;;10.71;100.00
54389;BME280;40975;50.390;8.640;2023-10-31T00:44:19;97272.25;;;10.80;100.00
54389;BME280;40975;50.390;8.640;2023-10-31T00:46:45;97291.59;;;10.74;100.00
54389;BME280;40975;50.390;8.640;2023-10-31T00:49:10;97298.09;;;10.71;100.00
54389;BME280;40975;50.390;8.640;2023-10-31T00:51:36;97297.28;;;10.71;100.00
54389;BME280;40975;50.390;8.640;2023-10-31T00:54:01;97300.19;;;10.76;100.00
54389;BME280;40975;50.390;8.640;2023-10-31T00:56:27;97298.94;;;10.72;100.00
54389;BME280;40975;50.390;8.640;2023-10-31T00:58:52;97303.91;;;10.82;100.00
54389;BME280;40975;50.390;8.640;2023-10-31T01:01:17;97299.38;;;10.76;100.00
54389;BME280;40975;50.390;8.640;2023-10-31T01:03:43;97311.56;;;10.70;100.00
54389;BME280;40975;50.390;8.640;2023-10-31T01:06:08;97304.19;;;10.65;100.00
54389;BME280;40975;50.390;8.640;2023-10-31T01:08:34;97308.41;;;10.60;100.00
54389;BME280;40975;50.390;8.640;2023-10-31T01:10:59;97303.06;;;10.53;100.00
54389;BME280;40975;50.390;8.640;2023-10-31T01:13:25;97308.50;;;10.45;100.00
54389;BME280;40975;50.390;8.640;2023-10-31T01:15:50;97307.06;;;10.42;100.00
54389;BME280;40975;50.390;8.640;2023-10-31T01:18:15;97302.03;;;10.32;100.00
54389;BME280;40975;50.390;8.640;2023-10-31T01:20:41;97301.56;;;10.29;100.00
54389;BME280;40975;50.390;8.640;2023-10-31T01:23:06;97306.00;;;10.21;100.00
54389;BME280;40975;50.390;8.640;2023-10-31T01:25:32;97303.53;;;10.20;100.00
54389;BME280;40975;50.390;8.640;2023-10-31T01:27:57;97313.97;;;10.21;100.00
54389;BME280;40975;50.390;8.640;2023-10-31T01:30:23;97311.69;;;10.18;100.00
54389;BME280;40975;50.390;8.640;2023-10-31T01:32:48;97309.22;;;10.17;100.00
54389;BME280;40975;50.390;8.640;2023-10-31T01:35:14;97307.19;;;10.19;100.00
54389;BME280;40975;50.390;8.640;2023-10-31T01:37:39;97307.31;;;10.10;100.00
54389;BME280;40975;50.390;8.640;2023-10-31T01:40:05;97304.72;;;10.17;100.00
54389;BME280;40975;50.390;8.640;2023-10-31T01:42:32;97297.13;;;10.14;100.00
54389;BME280;40975;50.390;8.640;2023-10-31T01:44:58;97307.50;;;10.09;100.00
54389;BME280;40975;50.390;8.640;2023-10-31T01:47:23;97300.34;;;10.09;100.00
54389;BME280;40975;50.390;8.640;2023-10-31T01:49:50;97301.69;;;9.99;100.00
54389;BME280;40975;50.390;8.640;2023-10-31T01:52:15;97312.22;;;9.92;100.00
54389;BME280;40975;50.390;8.640;2023-10-31T01:54:42;97320.72;;;9.87;100.00
54389;BME280;40975;50.390;8.640;2023-10-31T01:57:08;97319.00;;;9.79;100.00
54389;BME280;40975;50.390;8.640;2023-10-31T01:59:34;97329.78;;;9.78;100.00
54389;BME280;40975;50.390;8.640;2023-10-31T02:02:00;97322.84;;;9.77;100.00
54389;BME280;40975;50.390;8.640;2023-10-31T02:04:26;97321.84;;;9.78;100.00
54389;BME280;40975;50.390;8.640;2023-10-31T02:06:51;97325.94;;;9.80;100.00
54389;BME280;40975;50.390;8.640;2023-10-31T02:09:18;97323.13;;;9.82;100.00
54389;BME280;40975;50.390;8.640;2023-10-31T02:11:43;97328.31;;;9.90;100.00
54389;BME280;40975;50.390;8.640;2023-10-31T02:14:09;97318.50;;;9.91;100.00
54389;BME280;40975;50.390;8.640;2023-10-31T02:16:34;97323.81;;;9.91;100.00
54389;BME280;40975;50.390;8.640;2023-10-31T02:19:00;97325.81;;;9.89;100.00
54389;BME280;40975;50.390;8.640;2023-10-31T02:21:25;97323.16;;;9.89;100.00
54389;BME280;40975;50.390;8.640;2023-10-31T02:24:01;97336.41;;;9.89;100.00
54389;BME280;40975;50.390;8.640;2023-10-31T02:26:34;97327.47;;;9.90;100.00
54389;BME280;40975;50.390;8.640;2023-10-31T02:29:01;97328.94;;;9.92;100.00
54389;BME280;40975;50.390;8.640;2023-10-31T02:31:27;97326.00;;;9.87;100.00
54389;BME280;40975;50.390;8.640;2023-10-31T02:33:52;97325.00;;;9.88;100.00
54389;BME280;40975;50.390;8.640;2023-10-31T02:36:18;97322.28;;;9.82;100.00
54389;BME280;40975;50.390;8.640;2023-10-31T02:38:45;97320.94;;;9.71;100.00
54389;BME280;40975;50.390;8.640;2023-10-31T02:41:10;97321.59;;;9.73;100.00
54389;BME280;40975;50.390;8.640;2023-10-31T02:43:37;97323.38;;;9.72;100.00
54389;BME280;40975;50.390;8.640;2023-10-31T02:46:03;97335.88;;;9.78;100.00
54389;BME280;40975;50.390;8.640;2023-10-31T02:48:28;97339.28;;;9.72;100.00
54389;BME280;40975;50.390;8.640;2023-10-31T02:50:54;97340.84;;;9.67;100.00
54389;BME280;40975;50.390;8.640;2023-10-31T02:53:19;97346.69;;;9.62;100.00
54389;BME280;40975;50.390;8.640;2023-10-31T02:55:45;97353.00;;;9.61;100.00
54389;BME280;40975;50.390;8.640;2023-10-31T02:58:10;97354.19;;;9.58;100.00
54389;BME280;40975;50.390;8.640;2023-10-31T03:00:36;97347.44;;;9.56;100.00
54389;BME280;40975;50.390;8.640;2023-10-31T03:03:02;97346.34;;;9.50;100.00
54389;BME280;40975;50.390;8.640;2023-10-31T03:05:27;97362.59;;;9.47;100.00
54389;BME280;40975;50.390;8.640;2023-10-31T03:07:53;97363.97;;;9.43;100.00
54389;BME280;40975;50.390;8.640;2023-10-31T03:10:19;97376.91;;;9.38;100.00
54389;BME280;40975;50.390;8.640;2023-10-31T03:12:45;97377.91;;;9.37;100.00
54389;BME280;40975;50.390;8.640;2023-10-31T03:15:10;97377.56;;;9.40;100.00
54389;BME280;40975;50.390;8.640;2023-10-31T03:17:37;97382.22;;;9.38;100.00
54389;BME280;40975;50.390;8.640;2023-10-31T03:20:02;97382.03;;;9.39;100.00
54389;BME280;40975;50.390;8.640;2023-10-31T03:22:28;97384.69;;;9.54;100.00
54389;BME280;40975;50.390;8.640;2023-10-31T03:24:53;97386.72;;;9.52;100.00
54389;BME280;40975;50.390;8.640;2023-10-31T03:27:19;97385.72;;;9.53;100.00
54389;BME280;40975;50.390;8.640;2023-10-31T03:29:44;97397.56;;;9.57;100.00
54389;BME280;40975;50.390;8.640;2023-10-31T03:32:11;97398.94;;;9.53;100.00
54389;BME280;40975;50.390;8.640;2023-10-31T03:34:36;97407.69;;;9.54;100.00
54389;BME280;40975;50.390;8.640;2023-10-31T03:37:03;97414.47;;;9.56;100.00
54389;BME280;40975;50.390;8.640;2023-10-31T03:39:28;97416.00;;;9.51;100.00
54389;BME280;40975;50.390;8.640;2023-10-31T03:41:53;97418.56;;;9.44;100.00
54389;BME280;40975;50.390;8.640;2023-10-31T03:44:21;97421.84;;;9.46;100.00
54389;BME280;40975;50.390;8.640;2023-10-31T03:46:46;97427.88;;;9.40;100.00
54389;BME280;40975;50.390;8.640;2023-10-31T03:49:12;97429.34;;;9.42;100.00
54389;BME280;40975;50.390;8.640;2023-10-31T03:51:37;97433.72;;;9.35;100.00
54389;BME280;40975;50.390;8.640;2023-10-31T03:54:03;97437.72;;;9.31;100.00
54389;BME280;40975;50.390;8.640;2023-10-31T03:56:28;97448.03;;;9.26;100.00
54389;BME280;40975;50.390;8.640;2023-10-31T03:58:54;97449.25;;;9.15;100.00
54389;BME280;40975;50.390;8.640;2023-10-31T04:01:19;97453.63;;;9.08;100.00
54389;BME280;40975;50.390;8.640;2023-10-31T04:03:44;97460.25;;;9.03;100.00
54389;BME280;40975;50.390;8.640;2023-10-31T04:06:11;97455.63;;;9.06;100.00
54389;BME280;40975;50.390;8.640;2023-10-31T04:08:36;97466.28;;;8.97;100.00
54389;BME280;40975;50.390;8.640;2023-10-31T04:11:02;97460.53;;;8.94;100.00
54389;BME280;40975;50.390;8.640;2023-10-31T04:13:27;97472.16;;;8.84;100.00
54389;BME280;40975;50.390;8.640;2023-10-31T04:15:52;97456.69;;;8.73;100.00
54389;BME280;40975;50.390;8.640;2023-10-31T04:18:18;97467.47;;;8.71;100.00
54389;BME280;40975;50.390;8.640;2023-10-31T04:20:43;97472.91;;;8.70;100.00
54389;BME280;40975;50.390;8.640;2023-10-31T04:23:09;97467.00;;;8.68;100.00
54389;BME280;40975;50.390;8.640;2023-10-31T04:25:35;97463.69;;;8.66;100.00
54389;BME280;40975;50.390;8.640;2023-10-31T04:28:00;97460.91;;;8.59;100.00
54389;BME280;40975;50.390;8.640;2023-10-31T04:30:25;97462.25;;;8.55;100.00
54389;BME280;40975;50.390;8.640;2023-10-31T04:32:52;97471.53;;;8.51;100.00
54389;BME280;40975;50.390;8.640;2023-10-31T04:35:18;97476.00;;;8.50;100.00
54389;BME280;40975;50.390;8.640;2023-10-31T04:37:43;97481.47;;;8.49;100.00
54389;BME280;40975;50.390;8.640;2023-10-31T04:40:09;97475.38;;;8.48;100.00
54389;BME280;40975;50.390;8.640;2023-10-31T04:42:35;97488.41;;;8.50;100.00
54389;BME280;40975;50.390;8.640;2023-10-31T04:45:00;97499.63;;;8.52;100.00
54389;BME280;40975;50.390;8.640;2023-10-31T04:47:26;97496.81;;;8.53;100.00
54389;BME280;40975;50.390;8.640;2023-10-31T04:49:51;97498.28;;;8.56;100.00
54389;BME280;40975;50.390;8.640;2023-10-31T04:52:17;97492.66;;;8.59;100.00
54389;BME280;40975;50.390;8.640;2023-10-31T04:54:42;97502.88;;;8.62;100.00
54389;BME280;40975;50.390;8.640;2023-10-31T04:57:08;97491.94;;;8.65;100.00
54389;BME280;40975;50.390;8.640;2023-10-31T04:59:33;97494.06;;;8.70;100.00
54389;BME280;40975;50.390;8.640;2023-10-31T05:01:59;97498.00;;;8.74;100.00
54389;BME280;40975;50.390;8.640;2023-10-31T05:04:24;97503.78;;;8.78;100.00
54389;BME280;40975;50.390;8.640;2023-10-31T05:06:49;97502.06;;;8.85;100.00
54389;BME280;40975;50.390;8.640;2023-10-31T05:09:15;97496.44;;;8.88;100.00
54389;BME280;40975;50.390;8.640;2023-10-31T05:11:40;97502.38;;;8.90;100.00
54389;BME280;40975;50.390;8.640;2023-10-31T05:14:08;97492.16;;;8.87;100.00
54389;BME280;40975;50.390;8.640;2023-10-31T05:16:41;97492.97;;;8.88;100.00
54389;BME280;40975;50.390;8.640;2023-10-31T05:19:07;97498.44;;;8.86;100.00
54389;BME280;40975;50.390;8.640;2023-10-31T05:21:32;97492.00;;;8.80;100.00
54389;BME280;40975;50.390;8.640;2023-10-31T05:23:57;97493.19;;;8.78;100.00
54389;BME280;40975;50.390;8.640;2023-10-31T05:26:23;97492.25;;;8.70;100.00
54389;BME280;40975;50.390;8.640;2023-10-31T05:28:48;97494.59;;;8.65;100.00
54389;BME280;40975;50.390;8.640;2023-10-31T05:31:17;97490.94;;;8.66;100.00
54389;BME280;40975;50.390;8.640;2023-10-31T05:33:42;97498.72;;;8.68;100.00
54389;BME280;40975;50.390;8.640;2023-10-31T05:36:20;97497.06;;;8.67;100.00
54389;BME280;40975;50.390;8.640;2023-10-31T05:38:46;97492.25;;;8.70;100.00
54389;BME280;40975;50.390;8.640;2023-10-31T05:41:12;97503.34;;;8.66;100.00
54389;BME280;40975;50.390;8.640;2023-10-31T05:43:37;97497.22;;;8.65;100.00
54389;BME280;40975;50.390;8.640;2023-10-31T05:46:03;97509.16;;;8.61;100.00
54389;BME280;40975;50.390;8.640;2023-10-31T05:48:28;97506.06;;;8.58;100.00
54389;BME280;40975;50.390;8.640;2023-10-31T05:50:55;97512.50;;;8.55;100.00
54389;BME280;40975;50.390;8.640;2023-10-31T05:53:20;97514.50;;;8.53;100.00
54389;BME280;40975;50.390;8.640;2023-10-31T05:55:46;97511.50;;;8.56;100.00
54389;BME280;40975;50.390;8.640;2023-10-31T05:58:11;97513.63;;;8.61;100.00
54389;BME280;40975;50.390;8.640;2023-10-31T06:00:37;97521.50;;;8.69;100.00
54389;BME280;40975;50.390;8.640;2023-10-31T06:03:03;97525.97;;;8.68;100.00
54389;BME280;40975;50.390;8.640;2023-10-31T06:05:28;97528.75;;;8.75;100.00
54389;BME280;40975;50.390;8.640;2023-10-31T06:07:53;97531.56;;;8.74;100.00
54389;BME280;40975;50.390;8.640;2023-10-31T06:10:18;97532.06;;;8.77;100.00
54389;BME280;40975;50.390;8.640;2023-10-31T06:12:44;97544.78;;;8.82;100.00
54389;BME280;40975;50.390;8.640;2023-10-31T06:15:09;97543.59;;;8.84;100.00
54389;BME280;40975;50.390;8.640;2023-10-31T06:17:34;97553.19;;;8.85;100.00
54389;BME280;40975;50.390;8.640;2023-10-31T06:20:01;97556.47;;;8.88;100.00
54389;BME280;40975;50.390;8.640;2023-10-31T06:22:27;97556.28;;;8.89;100.00
54389;BME280;40975;50.390;8.640;2023-10-31T06:24:52;97559.59;;;8.91;100.00
54389;BME280;40975;50.390;8.640;2023-10-31T06:27:17;97560.88;;;8.95;100.00
54389;BME280;40975;50.390;8.640;2023-10-31T06:29:43;97558.06;;;8.97;100.00
54389;BME280;40975;50.390;8.640;2023-10-31T06:32:08;97568.47;;;8.98;100.00
54389;BME280;40975;50.390;8.640;2023-10-31T06:34:33;97564.66;;;9.01;100.00
54389;BME280;40975;50.390;8.640;2023-10-31T06:36:58;97574.06;;;9.03;100.00
54389;BME280;40975;50.390;8.640;2023-10-31T06:39:24;97573.91;;;9.05;100.00
54389;BME280;40975;50.390;8.640;2023-10-31T06:41:49;97582.00;;;9.03;100.00
54389;BME280;40975;50.390;8.640;2023-10-31T06:44:14;97585.94;;;9.08;100.00
54389;BME280;40975;50.390;8.640;2023-10-31T06:46:40;97585.94;;;9.08;100.00
54389;BME280;40975;50.390;8.640;2023-10-31T06:49:05;97596.19;;;9.11;100.00
54389;BME280;40975;50.390;8.640;2023-10-31T06:51:30;97599.31;;;9.14;100.00
54389;BME280;40975;50.390;8.640;2023-10-31T06:53:56;97606.41;;;9.14;100.00
54389;BME280;40975;50.390;8.640;2023-10-31T06:56:21;97607.72;;;9.18;100.00
54389;BME280;40975;50.390;8.640;2023-10-31T06:58:46;97606.38;;;9.22;100.00
54389;BME280;40975;50.390;8.640;2023-10-31T07:01:12;97612.31;;;9.24;100.00
54389;BME280;40975;50.390;8.640;2023-10-31T07:03:39;97603.38;;;9.25;100.00
54389;BME280;40975;50.390;8.640;2023-10-31T07:06:04;97612.81;;;9.28;100.00
54389;BME280;40975;50.390;8.640;2023-10-31T07:08:29;97621.22;;;9.31;100.00
54389;BME280;40975;50.390;8.640;2023-10-31T07:10:55;97612.28;;;9.32;100.00
54389;BME280;40975;50.390;8.640;2023-10-31T07:13:20;97621.03;;;9.33;100.00
54389;BME280;40975;50.390;8.640;2023-10-31T07:15:45;97631.94;;;9.38;100.00
54389;BME280;40975;50.390;8.640;2023-10-31T07:18:12;97619.78;;;9.44;100.00
54389;BME280;40975;50.390;8.640;2023-10-31T07:20:37;97625.75;;;9.46;100.00
54389;BME280;40975;50.390;8.640;2023-10-31T07:23:02;97624.53;;;9.57;100.00
54389;BME280;40975;50.390;8.640;2023-10-31T07:25:28;97636.78;;;9.58;100.00
54389;BME280;40975;50.390;8.640;2023-10-31T07:27:53;97632.81;;;9.54;100.00
54389;BME280;40975;50.390;8.640;2023-10-31T07:30:18;97645.19;;;9.61;100.00
54389;BME280;40975;50.390;8.640;2023-10-31T07:32:44;97648.13;;;9.67;100.00
54389;BME280;40975;50.390;8.640;2023-10-31T07:35:09;97652.06;;;9.71;100.00
54389;BME280;40975;50.390;8.640;2023-10-31T07:37:35;97658.19;;;9.71;100.00
54389;BME280;40975;50.390;8.640;2023-10-31T07:40:00;97659.38;;;9.69;100.00
54389;BME280;40975;50.390;8.640;2023-10-31T07:42:26;97664.00;;;9.67;100.00
54389;BME280;40975;50.390;8.640;2023-10-31T07:44:51;97668.84;;;9.63;100.00
54389;BME280;40975;50.390;8.640;2023-10-31T07:47:16;97658.19;;;9.71;100.00
54389;BME280;40975;50.390;8.640;2023-10-31T07:49:42;97660.66;;;9.73;100.00
54389;BME280;40975;50.390;8.640;2023-10-31T07:52:07;97668.72;;;9.79;100.00
54389;BME280;40975;50.390;8.640;2023-10-31T07:54:33;97681.50;;;9.76;100.00
54389;BME280;40975;50.390;8.640;2023-10-31T07:56:58;97679.31;;;9.79;100.00
54389;BME280;40975;50.390;8.640;2023-10-31T07:59:23;97685.78;;;9.77;100.00
54389;BME280;40975;50.390;8.640;2023-10-31T08:01:48;97683.34;;;9.75;100.00
54389;BME280;40975;50.390;8.640;2023-10-31T08:04:15;97683.84;;;9.71;100.00
54389;BME280;40975;50.390;8.640;2023-10-31T08:06:41;97692.16;;;9.68;100.00
54389;BME280;40975;50.390;8.640;2023-10-31T08:09:06;97686.56;;;9.62;100.00
54389;BME280;40975;50.390;8.640;2023-10-31T08:11:32;97690.56;;;9.58;100.00
54389;BME280;40975;50.390;8.640;2023-10-31T08:13:59;97701.75;;;9.69;100.00
54389;BME280;40975;50.390;8.640;2023-10-31T08:16:24;97697.75;;;9.73;100.00
54389;BME280;40975;50.390;8.640;2023-10-31T08:18:50;97708.16;;;9.74;100.00
54389;BME280;40975;50.390;8.640;2023-10-31T08:21:15;97708.44;;;9.79;100.00
54389;BME280;40975;50.390;8.640;2023-10-31T08:23:40;97716.72;;;9.85;100.00
54389;BME280;40975;50.390;8.640;2023-10-31T08:26:07;97715.41;;;9.80;100.00
54389;BME280;40975;50.390;8.640;2023-10-31T08:28:32;97717.84;;;9.90;100.00
54389;BME280;40975;50.390;8.640;2023-10-31T08:30:57;97726.59;;;9.91;100.00
54389;BME280;40975;50.390;8.640;2023-10-31T08:33:23;97721.06;;;10.01;100.00
54389;BME280;40975;50.390;8.640;2023-10-31T08:35:48;97725.19;;;10.03;100.00
54389;BME280;40975;50.390;8.640;2023-10-31T08:38:14;97725.47;;;10.08;100.00
54389;BME280;40975;50.390;8.640;2023-10-31T08:40:39;97728.56;;;9.97;100.00
54389;BME280;40975;50.390;8.640;2023-10-31T08:43:05;97733.69;;;9.99;100.00
54389;BME280;40975;50.390;8.640;2023-10-31T08:45:32;97735.06;;;9.86;100.00
54389;BME280;40975;50.390;8.640;2023-10-31T08:47:57;97733.59;;;9.84;100.00
54389;BME280;40975;50.390;8.640;2023-10-31T08:50:23;97745.69;;;9.86;100.00
54389;BME280;40975;50.390;8.640;2023-10-31T08:52:48;97751.09;;;9.93;100.00
54389;BME280;40975;50.390;8.640;2023-10-31T08:55:13;97748.63;;;9.91;100.00
54389;BME280;40975;50.390;8.640;2023-10-31T08:57:39;97757.22;;;9.93;100.00
54389;BME280;40975;50.390;8.640;2023-10-31T09:00:04;97763.00;;;9.97;100.00
54389;BME280;40975;50.390;8.640;2023-10-31T09:02:30;97760.38;;;9.89;100.00
54389;BME280;40975;50.390;8.640;2023-10-31T09:04:55;97770.13;;;9.96;100.00
54389;BME280;40975;50.390;8.640;2023-10-31T09:07:21;97769.72;;;10.08;100.00
54389;BME280;40975;50.390;8.640;2023-10-31T09:09:46;97776.94;;;10.14;100.00
54389;BME280;40975;50.390;8.640;2023-10-31T09:12:11;97775.28;;;10.21;100.00
54389;BME280;40975;50.390;8.640;2023-10-31T09:14:37;97790.75;;;10.33;100.00
54389;BME280;40975;50.390;8.640;2023-10-31T09:17:02;97796.38;;;10.38;100.00
54389;BME280;40975;50.390;8.640;2023-10-31T09:19:27;97794.03;;;10.43;100.00
54389;BME280;40975;50.390;8.640;2023-10-31T09:21:54;97794.59;;;10.53;100.00
54389;BME280;40975;50.390;8.640;2023-10-31T09:24:19;97792.22;;;10.58;100.00
54389;BME280;40975;50.390;8.640;2023-10-31T09:26:45;97802.84;;;10.58;100.00
54389;BME280;40975;50.390;8.640;2023-10-31T09:29:10;97802.41;;;10.70;100.00
54389;BME280;40975;50.390;8.640;2023-10-31T09:31:36;97804.31;;;10.61;100.00
54389;BME280;40975;50.390;8.640;2023-10-31T09:34:01;97816.34;;;10.72;100.00
54389;BME280;40975;50.390;8.640;2023-10-31T09:36:31;97821.00;;;10.70;100.00
54389;BME280;40975;50.390;8.640;2023-10-31T09:38:56;97827.16;;;10.85;100.00
54389;BME280;40975;50.390;8.640;2023-10-31T09:41:22;97821.56;;;10.80;100.00
54389;BME280;40975;50.390;8.640;2023-10-31T09:43:47;97824.13;;;10.88;100.00
54389;BME280;40975;50.390;8.640;2023-10-31T09:46:12;97831.66;;;11.00;100.00
54389;BME280;40975;50.390;8.640;2023-10-31T09:48:38;97839.81;;;11.13;100.00
54389;BME280;40975;50.390;8.640;2023-10-31T09:51:05;97831.84;;;11.13;100.00
54389;BME280;40975;50.390;8.640;2023-10-31T09:53:32;97838.09;;;11.20;100.00
54389;BME280;40975;50.390;8.640;2023-10-31T09:55:59;97838.56;;;11.24;100.00
54389;BME280;40975;50.390;8.640;2023-10-31T09:58:24;97843.97;;;11.31;100.00
54389;BME280;40975;50.390;8.640;2023-10-31T10:00:49;97849.06;;;11.17;100.00
54389;BME280;40975;50.390;8.640;2023-10-31T10:03:16;97845.31;;;11.12;100.00
54389;BME280;40975;50.390;8.640;2023-10-31T10:05:44;97851.00;;;11.24;100.00
54389;BME280;40975;50.390;8.640;2023-10-31T10:08:09;97847.44;;;11.31;100.00
54389;BME280;40975;50.390;8.640;2023-10-31T10:10:35;97851.28;;;11.59;100.00
54389;BME280;40975;50.390;8.640;2023-10-31T10:13:02;97849.53;;;11.81;100.00
54389;BME280;40975;50.390;8.640;2023-10-31T10:15:28;97848.31;;;11.98;100.00
54389;BME280;40975;50.390;8.640;2023-10-31T10:17:54;97846.25;;;11.64;100.00
54389;BME280;40975;50.390;8.640;2023-10-31T10:20:19;97839.00;;;11.58;100.00
54389;BME280;40975;50.390;8.640;2023-10-31T10:22:45;97833.66;;;11.88;100.00
54389;BME280;40975;50.390;8.640;2023-10-31T10:25:13;97847.66;;;12.11;100.00
54389;BME280;40975;50.390;8.640;2023-10-31T10:27:41;97838.19;;;12.46;100.00
54389;BME280;40975;50.390;8.640;2023-10-31T10:30:07;97844.00;;;12.34;100.00
54389;BME280;40975;50.390;8.640;2023-10-31T10:32:33;97854.53;;;12.42;100.00
54389;BME280;40975;50.390;8.640;2023-10-31T10:34:58;97848.31;;;12.35;100.00
54389;BME280;40975;50.390;8.640;2023-10-31T10:37:26;97846.56;;;12.42;100.00
54389;BME280;40975;50.390;8.640;2023-10-31T10:39:51;97846.50;;;12.57;100.00
54389;BME280;40975;50.390;8.640;2023-10-31T10:42:32;97850.69;;;14.96;99.82
54389;BME280;40975;50.390;8.640;2023-10-31T10:45:02;97834.31;;;16.56;87.04
54389;BME280;40975;50.390;8.640;2023-10-31T10:47:31;97829.06;;;17.18;80.88
54389;BME280;40975;50.390;8.640;2023-10-31T10:49:59;97834.88;;;17.59;77.47
54389;BME280;40975;50.390;8.640;2023-10-31T10:52:29;97835.94;;;18.07;78.45
54389;BME280;40975;50.390;8.640;2023-10-31T10:55:03;97830.75;;;17.94;75.27
54389;BME280;40975;50.390;8.640;2023-10-31T10:57:38;97824.13;;;17.40;73.24
54389;BME280;40975;50.390;8.640;2023-10-31T11:00:05;97831.66;;;17.50;74.62
54389;BME280;40975;50.390;8.640;2023-10-31T11:02:36;97827.25;;;17.37;76.30
54389;BME280;40975;50.390;8.640;2023-10-31T11:05:05;97831.34;;;16.96;75.14
54389;BME280;40975;50.390;8.640;2023-10-31T11:07:32;97838.72;;;17.26;78.57
54389;BME280;40975;50.390;8.640;2023-10-31T11:09:59;97844.66;;;17.09;77.71
54389;BME280;40975;50.390;8.640;2023-10-31T11:12:29;97834.59;;;16.73;77.42
54389;BME280;40975;50.390;8.640;2023-10-31T11:14:57;97842.31;;;15.72;79.99
54389;BME280;40975;50.390;8.640;2023-10-31T11:17:29;97847.97;;;16.02;79.29
54389;BME280;40975;50.390;8.640;2023-10-31T11:19:55;97846.25;;;15.62;79.64
54389;BME280;40975;50.390;8.640;2023-10-31T11:22:21;97827.41;;;15.30;81.54
54389;BME280;40975;50.390;8.640;2023-10-31T11:24:48;97835.81;;;15.41;81.22
54389;BME280;40975;50.390;8.640;2023-10-31T11:27:14;97845.94;;;15.32;82.08
54389;BME280;40975;50.390;8.640;2023-10-31T11:29:39;97842.88;;;15.21;78.50
54389;BME280;40975;50.390;8.640;2023-10-31T11:32:09;97842.84;;;15.28;79.93
54389;BME280;40975;50.390;8.640;2023-10-31T11:34:37;97840.94;;;15.49;79.00
54389;BME280;40975;50.390;8.640;2023-10-31T11:37:23;97840.22;;;15.08;79.80
54389;BME280;40975;50.390;8.640;2023-10-31T11:42:43;97841.03;;;14.88;80.93
54389;BME280;40975;50.390;8.640;2023-10-31T11:45:09;97856.00;;;15.23;80.91
54389;BME280;40975;50.390;8.640;2023-10-31T11:47:47;97848.19;;;15.28;79.80
54389;BME280;40975;50.390;8.640;2023-10-31T11:50:13;97851.72;;;14.95;78.88
54389;BME280;40975;50.390;8.640;2023-10-31T11:52:39;97858.28;;;15.13;81.88
54389;BME280;40975;50.390;8.640;2023-10-31T11:55:08;97848.00;;;15.30;78.19
54389;BME280;40975;50.390;8.640;2023-10-31T11:57:33;97845.84;;;15.65;78.88
54389;BME280;40975;50.390;8.640;2023-10-31T11:59:59;97856.38;;;16.12;77.58
54389;BME280;40975;50.390;8.640;2023-10-31T12:02:24;97851.44;;;16.48;74.85
54389;BME280;40975;50.390;8.640;2023-10-31T12:04:50;97846.00;;;16.61;76.20
54389;BME280;40975;50.390;8.640;2023-10-31T12:07:16;97855.31;;;16.59;74.67
54389;BME280;40975;50.390;8.640;2023-10-31T12:09:48;97858.84;;;16.21;75.99
54389;BME280;40975;50.390;8.640;2023-10-31T12:12:14;97859.31;;;16.04;75.23
54389;BME280;40975;50.390;8.640;2023-10-31T12:14:40;97872.72;;;16.43;78.20
54389;BME280;40975;50.390;8.640;2023-10-31T12:17:06;97864.94;;;16.67;72.80
54389;BME280;40975;50.390;8.640;2023-10-31T12:19:32;97876.13;;;16.18;74.63
54389;BME280;40975;50.390;8.640;2023-10-31T12:21:58;97883.84;;;16.40;73.00
54389;BME280;40975;50.390;8.640;2023-10-31T12:24:23;97871.00;;;16.16;74.29
54389;BME280;40975;50.390;8.640;2023-10-31T12:26:48;97885.88;;;15.99;73.46
54389;BME280;40975;50.390;8.640;2023-10-31T12:29:16;97880.50;;;15.06;75.62
54389;BME280;40975;50.390;8.640;2023-10-31T12:31:44;97897.34;;;14.80;79.97
54389;BME280;40975;50.390;8.640;2023-10-31T12:34:13;97903.84;;;14.64;83.78
54389;BME280;40975;50.390;8.640;2023-10-31T12:36:40;97894.94;;;14.37;81.58
54389;BME280;40975;50.390;8.640;2023-10-31T12:39:07;97896.72;;;14.16;82.80
54389;BME280;40975;50.390;8.640;2023-10-31T12:41:34;97903.31;;;13.78;83.49
54389;BME280;40975;50.390;8.640;2023-10-31T12:44:00;97899.28;;;13.47;84.68
54389;BME280;40975;50.390;8.640;2023-10-31T12:46:29;97919.69;;;13.40;87.57
54389;BME280;40975;50.390;8.640;2023-10-31T12:48:56;97902.75;;;13.26;87.67
54389;BME280;40975;50.390;8.640;2023-10-31T12:51:21;97909.22;;;13.67;88.35
54389;BME280;40975;50.390;8.640;2023-10-31T12:53:50;97907.25;;;13.82;87.42